sensor_id;sensor_type;location;lat;lon;timestamp;pressure;altitude;pressure_sealevel;temperature;humidity
84671;BME280;74898;42.716;23.624;2024-02-23T00:01:36;94603.66;;;4.91;63.74
84671;BME280;74898;42.716;23.624;2024-02-23T00:04:02;94608.44;;;4.94;64.56
84671;BME280;74898;42.716;23.624;2024-02-23T00:06:28;94605.47;;;5.05;63.58
84671;BME280;74898;42.716;23.624;2024-02-23T00:08:54;94596.50;;;5.01;63.84
84671;BME280;74898;42.716;23.624;2024-02-23T00:11:23;94599.97;;;5.08;63.64
84671;BME280;74898;42.716;23.624;2024-02-23T00:13:49;94599.97;;;5.08;63.93
84671;BME280;74898;42.716;23.624;2024-02-23T00:16:14;94594.75;;;5.16;62.73
84671;BME280;74898;42.716;23.624;2024-02-23T00:18:40;94590.88;;;5.20;63.16
84671;BME280;74898;42.716;23.624;2024-02-23T00:21:06;94596.88;;;5.28;62.49
84671;BME280;74898;42.716;23.624;2024-02-23T00:23:31;94586.53;;;5.21;62.10
84671;BME280;74898;42.716;23.624;2024-02-23T00:25:57;94585.72;;;5.20;63.34
84671;BME280;74898;42.716;23.624;2024-02-23T00:28:22;94584.22;;;5.26;63.26
84671;BME280;74898;42.716;23.624;2024-02-23T00:30:48;94586.97;;;5.25;62.43
84671;BME280;74898;42.716;23.624;2024-02-23T00:33:14;94583.63;;;5.24;63.46
84671;BME280;74898;42.716;23.624;2024-02-23T00:35:40;94575.47;;;5.20;63.23
84671;BME280;74898;42.716;23.624;2024-02-23T00:38:05;94575.81;;;5.17;64.08
84671;BME280;74898;42.716;23.624;2024-02-23T00:40:33;94581.13;;;5.16;64.49
84671;BME280;74898;42.716;23.624;2024-02-23T00:42:58;94567.50;;;5.15;64.66
84671;BME280;74898;42.716;23.624;2024-02-23T00:45:25;94565.56;;;5.17;63.81
84671;BME280;74898;42.716;23.624;2024-02-23T00:47:51;94566.53;;;5.16;64.01
84671;BME280;74898;42.716;23.624;2024-02-23T00:50:16;94572.00;;;5.13;64.59
84671;BME280;74898;42.716;23.624;2024-02-23T00:52:42;94567.06;;;5.12;63.93
84671;BME280;74898;42.716;23.624;2024-02-23T00:55:08;94562.09;;;5.10;64.10
84671;BME280;74898;42.716;23.624;2024-02-23T00:57:34;94563.34;;;5.14;63.92
84671;BME280;74898;42.716;23.624;2024-02-23T01:00:01;94561.69;;;5.07;65.05
84671;BME280;74898;42.716;23.624;2024-02-23T01:02:28;94559.63;;;5.17;63.27
84671;BME280;74898;42.716;23.624;2024-02-23T01:04:54;94556.88;;;5.04;63.69
84671;BME280;74898;42.716;23.624;2024-02-23T01:07:22;94556.72;;;5.05;64.43
84671;BME280;74898;42.716;23.624;2024-02-23T01:09:48;94553.53;;;5.03;64.87
84671;BME280;74898;42.716;23.624;2024-02-23T01:12:14;94551.66;;;4.82;65.65
84671;BME280;74898;42.716;23.624;2024-02-23T01:14:39;94551.38;;;4.62;66.54
84671;BME280;74898;42.716;23.624;2024-02-23T01:17:05;94551.13;;;4.34;68.03
84671;BME280;74898;42.716;23.624;2024-02-23T01:19:30;94553.25;;;4.07;68.32
84671;BME280;74898;42.716;23.624;2024-02-23T01:21:56;94547.34;;;4.07;68.58
84671;BME280;74898;42.716;23.624;2024-02-23T01:24:28;94545.56;;;4.07;68.73
84671;BME280;74898;42.716;23.624;2024-02-23T01:26:55;94544.31;;;4.03;69.00
84671;BME280;74898;42.716;23.624;2024-02-23T01:29:21;94542.03;;;3.85;69.35
84671;BME280;74898;42.716;23.624;2024-02-23T01:31:50;94528.06;;;3.88;69.56
84671;BME280;74898;42.716;23.624;2024-02-23T01:34:17;94531.97;;;3.84;70.40
84671;BME280;74898;42.716;23.624;2024-02-23T01:36:43;94529.22;;;3.85;70.03
84671;BME280;74898;42.716;23.624;2024-02-23T01:39:09;94532.06;;;3.90;71.23
84671;BME280;74898;42.716;23.624;2024-02-23T01:41:35;94536.16;;;4.00;70.86
84671;BME280;74898;42.716;23.624;2024-02-23T01:44:01;94527.84;;;3.98;71.31
84671;BME280;74898;42.716;23.624;2024-02-23T01:46:26;94527.97;;;4.04;71.50
84671;BME280;74898;42.716;23.624;2024-02-23T01:48:52;94525.69;;;4.09;71.68
84671;BME280;74898;42.716;23.624;2024-02-23T01:51:18;94530.59;;;4.19;71.12
84671;BME280;74898;42.716;23.624;2024-02-23T01:53:44;94541.84;;;4.33;70.38
84671;BME280;74898;42.716;23.624;2024-02-23T01:56:11;94531.69;;;4.40;69.76
84671;BME280;74898;42.716;23.624;2024-02-23T01:58:37;94536.47;;;4.43;69.91
84671;BME280;74898;42.716;23.624;2024-02-23T02:01:03;94534.34;;;4.46;70.06
84671;BME280;74898;42.716;23.624;2024-02-23T02:03:29;94525.03;;;4.30;69.57
84671;BME280;74898;42.716;23.624;2024-02-23T02:05:56;94524.91;;;4.24;69.35
84671;BME280;74898;42.716;23.624;2024-02-23T02:08:25;94523.75;;;4.11;69.68
84671;BME280;74898;42.716;23.624;2024-02-23T02:10:51;94522.22;;;4.02;70.33
84671;BME280;74898;42.716;23.624;2024-02-23T02:13:16;94509.34;;;3.87;70.74
84671;BME280;74898;42.716;23.624;2024-02-23T02:15:42;94517.59;;;3.52;71.82
84671;BME280;74898;42.716;23.624;2024-02-23T02:18:09;94517.69;;;3.58;71.42
84671;BME280;74898;42.716;23.624;2024-02-23T02:20:36;94518.75;;;3.41;72.96
84671;BME280;74898;42.716;23.624;2024-02-23T02:23:03;94525.00;;;3.38;73.07
84671;BME280;74898;42.716;23.624;2024-02-23T02:25:28;94517.97;;;3.40;72.51
84671;BME280;74898;42.716;23.624;2024-02-23T02:27:54;94514.75;;;3.38;72.68
84671;BME280;74898;42.716;23.624;2024-02-23T02:30:20;94523.38;;;3.45;71.73
84671;BME280;74898;42.716;23.624;2024-02-23T02:32:45;94531.69;;;3.47;71.82
84671;BME280;74898;42.716;23.624;2024-02-23T02:35:11;94532.66;;;3.46;71.41
84671;BME280;74898;42.716;23.624;2024-02-23T02:37:40;94529.63;;;3.43;72.25
84671;BME280;74898;42.716;23.624;2024-02-23T02:40:06;94527.03;;;3.51;71.73
84671;BME280;74898;42.716;23.624;2024-02-23T02:42:33;94514.91;;;3.45;72.03
84671;BME280;74898;42.716;23.624;2024-02-23T02:44:58;94508.34;;;3.42;71.75
84671;BME280;74898;42.716;23.624;2024-02-23T02:47:24;94515.41;;;3.40;71.96
84671;BME280;74898;42.716;23.624;2024-02-23T02:49:49;94506.63;;;3.35;72.31
84671;BME280;74898;42.716;23.624;2024-02-23T02:52:16;94509.44;;;3.48;71.02
84671;BME280;74898;42.716;23.624;2024-02-23T02:54:42;94511.16;;;3.56;71.69
84671;BME280;74898;42.716;23.624;2024-02-23T02:57:07;94510.22;;;3.57;70.92
84671;BME280;74898;42.716;23.624;2024-02-23T02:59:35;94513.09;;;3.54;71.46
84671;BME280;74898;42.716;23.624;2024-02-23T03:02:01;94512.91;;;3.55;71.58
84671;BME280;74898;42.716;23.624;2024-02-23T03:04:26;94512.91;;;3.55;71.78
84671;BME280;74898;42.716;23.624;2024-02-23T03:06:52;94510.22;;;3.57;71.49
84671;BME280;74898;42.716;23.624;2024-02-23T03:09:18;94510.31;;;3.63;71.01
84671;BME280;74898;42.716;23.624;2024-02-23T03:11:43;94505.66;;;3.67;70.34
84671;BME280;74898;42.716;23.624;2024-02-23T03:14:09;94504.66;;;3.76;70.08
84671;BME280;74898;42.716;23.624;2024-02-23T03:16:35;94503.03;;;3.75;70.00
84671;BME280;74898;42.716;23.624;2024-02-23T03:19:02;94507.81;;;3.78;69.31
84671;BME280;74898;42.716;23.624;2024-02-23T03:21:28;94515.06;;;3.75;69.80
84671;BME280;74898;42.716;23.624;2024-02-23T03:23:53;94508.03;;;3.68;70.38
84671;BME280;74898;42.716;23.624;2024-02-23T03:26:19;94508.44;;;3.57;69.98
84671;BME280;74898;42.716;23.624;2024-02-23T03:28:44;94506.78;;;3.41;71.11
84671;BME280;74898;42.716;23.624;2024-02-23T03:31:11;94510.09;;;3.19;72.26
84671;BME280;74898;42.716;23.624;2024-02-23T03:33:37;94515.31;;;3.25;72.14
84671;BME280;74898;42.716;23.624;2024-02-23T03:36:03;94515.34;;;3.17;71.40
84671;BME280;74898;42.716;23.624;2024-02-23T03:38:28;94514.56;;;3.17;72.33
84671;BME280;74898;42.716;23.624;2024-02-23T03:40:55;94514.69;;;3.23;71.46
84671;BME280;74898;42.716;23.624;2024-02-23T03:43:21;94513.22;;;3.29;71.14
84671;BME280;74898;42.716;23.624;2024-02-23T03:45:47;94514.81;;;3.30;71.86
84671;BME280;74898;42.716;23.624;2024-02-23T03:48:13;94519.78;;;3.32;72.27
84671;BME280;74898;42.716;23.624;2024-02-23T03:50:38;94518.44;;;3.44;70.93
84671;BME280;74898;42.716;23.624;2024-02-23T03:53:04;94514.09;;;3.44;70.61
84671;BME280;74898;42.716;23.624;2024-02-23T03:55:31;94524.00;;;3.47;71.08
84671;BME280;74898;42.716;23.624;2024-02-23T03:57:57;94518.59;;;3.42;70.91
84671;BME280;74898;42.716;23.624;2024-02-23T04:00:22;94525.78;;;3.47;70.05
84671;BME280;74898;42.716;23.624;2024-02-23T04:02:49;94526.91;;;3.44;70.48
84671;BME280;74898;42.716;23.624;2024-02-23T04:05:16;94525.69;;;3.32;70.94
84671;BME280;74898;42.716;23.624;2024-02-23T04:07:44;94519.38;;;3.43;71.55
84671;BME280;74898;42.716;23.624;2024-02-23T04:10:09;94520.59;;;3.55;70.79
84671;BME280;74898;42.716;23.624;2024-02-23T04:12:35;94509.00;;;3.67;70.02
84671;BME280;74898;42.716;23.624;2024-02-23T04:15:00;94512.63;;;3.81;70.44
84671;BME280;74898;42.716;23.624;2024-02-23T04:17:26;94512.22;;;3.93;69.75
84671;BME280;74898;42.716;23.624;2024-02-23T04:19:51;94517.44;;;3.99;69.31
84671;BME280;74898;42.716;23.624;2024-02-23T04:22:17;94527.78;;;4.06;69.44
84671;BME280;74898;42.716;23.624;2024-02-23T04:24:42;94523.13;;;4.09;68.58
84671;BME280;74898;42.716;23.624;2024-02-23T04:27:08;94517.81;;;4.11;68.14
84671;BME280;74898;42.716;23.624;2024-02-23T04:29:34;94516.34;;;4.17;68.77
84671;BME280;74898;42.716;23.624;2024-02-23T04:32:00;94513.56;;;4.26;68.44
84671;BME280;74898;42.716;23.624;2024-02-23T04:34:27;94526.81;;;4.30;68.14
84671;BME280;74898;42.716;23.624;2024-02-23T04:36:53;94520.72;;;4.31;68.04
84671;BME280;74898;42.716;23.624;2024-02-23T04:39:18;94524.41;;;4.28;68.07
84671;BME280;74898;42.716;23.624;2024-02-23T04:41:44;94517.34;;;4.30;68.00
84671;BME280;74898;42.716;23.624;2024-02-23T04:44:09;94522.03;;;4.27;68.08
84671;BME280;74898;42.716;23.624;2024-02-23T04:46:35;94524.84;;;4.17;68.54
84671;BME280;74898;42.716;23.624;2024-02-23T04:49:01;94530.91;;;4.16;68.05
84671;BME280;74898;42.716;23.624;2024-02-23T04:51:27;94537.66;;;4.17;68.50
84671;BME280;74898;42.716;23.624;2024-02-23T04:53:53;94539.75;;;4.14;68.23
84671;BME280;74898;42.716;23.624;2024-02-23T04:56:19;94536.91;;;4.08;67.75
84671;BME280;74898;42.716;23.624;2024-02-23T04:58:44;94539.66;;;4.07;68.56
84671;BME280;74898;42.716;23.624;2024-02-23T05:01:10;94530.53;;;4.04;68.19
84671;BME280;74898;42.716;23.624;2024-02-23T05:03:36;94544.81;;;3.99;68.52
84671;BME280;74898;42.716;23.624;2024-02-23T05:06:03;94545.16;;;3.96;68.98
84671;BME280;74898;42.716;23.624;2024-02-23T05:08:28;94545.22;;;3.87;69.08
84671;BME280;74898;42.716;23.624;2024-02-23T05:10:56;94537.88;;;3.84;69.09
84671;BME280;74898;42.716;23.624;2024-02-23T05:13:22;94550.34;;;3.87;69.23
84671;BME280;74898;42.716;23.624;2024-02-23T05:15:48;94551.63;;;3.83;68.61
84671;BME280;74898;42.716;23.624;2024-02-23T05:18:13;94539.38;;;3.79;69.51
84671;BME280;74898;42.716;23.624;2024-02-23T05:20:39;94545.50;;;3.70;69.83
84671;BME280;74898;42.716;23.624;2024-02-23T05:23:04;94556.06;;;3.66;69.71
84671;BME280;74898;42.716;23.624;2024-02-23T05:25:30;94561.69;;;3.62;69.93
84671;BME280;74898;42.716;23.624;2024-02-23T05:27:56;94553.50;;;3.66;69.85
84671;BME280;74898;42.716;23.624;2024-02-23T05:30:21;94555.53;;;3.71;70.26
84671;BME280;74898;42.716;23.624;2024-02-23T05:32:47;94554.75;;;3.71;69.81
84671;BME280;74898;42.716;23.624;2024-02-23T05:35:13;94557.81;;;3.66;69.70
84671;BME280;74898;42.716;23.624;2024-02-23T05:37:41;94559.94;;;3.62;70.09
84671;BME280;74898;42.716;23.624;2024-02-23T05:40:07;94565.19;;;3.69;69.69
84671;BME280;74898;42.716;23.624;2024-02-23T05:42:38;94566.16;;;3.91;69.36
84671;BME280;74898;42.716;23.624;2024-02-23T05:45:05;94552.50;;;3.99;68.68
84671;BME280;74898;42.716;23.624;2024-02-23T05:47:37;94559.94;;;4.08;67.96
84671;BME280;74898;42.716;23.624;2024-02-23T05:50:03;94556.66;;;4.00;68.04
84671;BME280;74898;42.716;23.624;2024-02-23T05:52:31;94571.06;;;4.01;68.29
84671;BME280;74898;42.716;23.624;2024-02-23T05:54:57;94566.84;;;4.08;68.03
84671;BME280;74898;42.716;23.624;2024-02-23T05:57:22;94574.44;;;4.24;67.56
84671;BME280;74898;42.716;23.624;2024-02-23T05:59:48;94580.78;;;4.28;67.10
84671;BME280;74898;42.716;23.624;2024-02-23T06:02:13;94586.03;;;4.35;66.96
84671;BME280;74898;42.716;23.624;2024-02-23T06:04:41;94588.25;;;4.38;67.08
84671;BME280;74898;42.716;23.624;2024-02-23T06:07:07;94586.94;;;4.42;66.25
84671;BME280;74898;42.716;23.624;2024-02-23T06:09:32;94584.94;;;4.52;66.11
84671;BME280;74898;42.716;23.624;2024-02-23T06:11:58;94600.69;;;4.49;66.76
84671;BME280;74898;42.716;23.624;2024-02-23T06:14:23;94594.56;;;4.50;67.15
84671;BME280;74898;42.716;23.624;2024-02-23T06:16:49;94598.19;;;4.56;68.27
84671;BME280;74898;42.716;23.624;2024-02-23T06:19:15;94602.75;;;4.84;67.25
84671;BME280;74898;42.716;23.624;2024-02-23T06:21:41;94601.66;;;5.01;65.63
84671;BME280;74898;42.716;23.624;2024-02-23T06:24:07;94603.59;;;5.14;65.95
84671;BME280;74898;42.716;23.624;2024-02-23T06:26:34;94609.00;;;5.19;65.72
84671;BME280;74898;42.716;23.624;2024-02-23T06:29:00;94609.00;;;5.19;65.69
84671;BME280;74898;42.716;23.624;2024-02-23T06:31:26;94612.66;;;5.39;65.49
84671;BME280;74898;42.716;23.624;2024-02-23T06:33:51;94607.41;;;5.62;65.82
84671;BME280;74898;42.716;23.624;2024-02-23T06:36:17;94613.19;;;5.86;65.71
84671;BME280;74898;42.716;23.624;2024-02-23T06:38:44;94601.22;;;6.08;64.85
84671;BME280;74898;42.716;23.624;2024-02-23T06:41:11;94603.91;;;6.21;61.37
84671;BME280;74898;42.716;23.624;2024-02-23T06:43:37;94601.84;;;6.53;62.58
84671;BME280;74898;42.716;23.624;2024-02-23T06:46:09;94597.25;;;6.70;60.56
84671;BME280;74898;42.716;23.624;2024-02-23T06:48:35;94602.66;;;6.82;60.08
84671;BME280;74898;42.716;23.624;2024-02-23T06:51:02;94608.56;;;7.04;60.55
84671;BME280;74898;42.716;23.624;2024-02-23T06:53:29;94616.50;;;7.09;59.12
84671;BME280;74898;42.716;23.624;2024-02-23T06:55:54;94608.06;;;7.22;59.18
84671;BME280;74898;42.716;23.624;2024-02-23T06:58:20;94597.09;;;7.41;59.29
84671;BME280;74898;42.716;23.624;2024-02-23T07:00:45;94604.53;;;7.57;58.09
84671;BME280;74898;42.716;23.624;2024-02-23T07:03:13;94600.44;;;7.76;56.43
84671;BME280;74898;42.716;23.624;2024-02-23T07:05:40;94600.09;;;7.93;56.23
84671;BME280;74898;42.716;23.624;2024-02-23T07:08:09;94598.75;;;8.17;54.37
84671;BME280;74898;42.716;23.624;2024-02-23T07:10:34;94599.75;;;8.22;55.22
84671;BME280;74898;42.716;23.624;2024-02-23T07:13:00;94606.34;;;8.38;54.98
84671;BME280;74898;42.716;23.624;2024-02-23T07:15:26;94591.50;;;8.47;55.14
84671;BME280;74898;42.716;23.624;2024-02-23T07:17:52;94592.94;;;8.63;53.51
84671;BME280;74898;42.716;23.624;2024-02-23T07:20:17;94599.06;;;8.69;53.08
84671;BME280;74898;42.716;23.624;2024-02-23T07:22:46;94600.06;;;8.81;54.48
84671;BME280;74898;42.716;23.624;2024-02-23T07:25:16;94595.09;;;8.93;53.96
84671;BME280;74898;42.716;23.624;2024-02-23T07:27:41;94594.31;;;9.05;53.82
84671;BME280;74898;42.716;23.624;2024-02-23T07:30:07;94595.28;;;9.11;53.15
84671;BME280;74898;42.716;23.624;2024-02-23T07:32:33;94597.06;;;9.24;52.89
84671;BME280;74898;42.716;23.624;2024-02-23T07:34:59;94590.88;;;9.25;51.30
84671;BME280;74898;42.716;23.624;2024-02-23T07:37:26;94588.66;;;9.35;51.96
84671;BME280;74898;42.716;23.624;2024-02-23T07:39:52;94586.44;;;9.45;53.04
84671;BME280;74898;42.716;23.624;2024-02-23T07:42:18;94588.84;;;9.54;52.76
84671;BME280;74898;42.716;23.624;2024-02-23T07:44:44;94576.28;;;9.64;51.96
84671;BME280;74898;42.716;23.624;2024-02-23T07:47:11;94578.00;;;9.83;50.68
84671;BME280;74898;42.716;23.624;2024-02-23T07:49:36;94586.28;;;9.99;51.43
84671;BME280;74898;42.716;23.624;2024-02-23T07:52:02;94588.78;;;10.12;50.81
84671;BME280;74898;42.716;23.624;2024-02-23T07:54:28;94579.38;;;10.24;52.12
84671;BME280;74898;42.716;23.624;2024-02-23T07:56:54;94580.31;;;10.36;48.99
84671;BME280;74898;42.716;23.624;2024-02-23T07:59:19;94578.41;;;10.50;50.29
84671;BME280;74898;42.716;23.624;2024-02-23T08:01:45;94576.22;;;10.54;49.17
84671;BME280;74898;42.716;23.624;2024-02-23T08:04:13;94582.72;;;10.63;49.46
84671;BME280;74898;42.716;23.624;2024-02-23T08:06:39;94572.44;;;10.81;48.29
84671;BME280;74898;42.716;23.624;2024-02-23T08:09:04;94578.91;;;10.91;49.09
84671;BME280;74898;42.716;23.624;2024-02-23T08:11:30;94578.44;;;11.00;49.05
84671;BME280;74898;42.716;23.624;2024-02-23T08:13:56;94575.19;;;11.05;49.57
84671;BME280;74898;42.716;23.624;2024-02-23T08:16:21;94573.34;;;11.12;48.14
84671;BME280;74898;42.716;23.624;2024-02-23T08:18:47;94572.22;;;11.27;47.99
84671;BME280;74898;42.716;23.624;2024-02-23T08:21:12;94571.56;;;11.31;47.16
84671;BME280;74898;42.716;23.624;2024-02-23T08:23:38;94575.81;;;11.44;46.82
84671;BME280;74898;42.716;23.624;2024-02-23T08:26:04;94571.38;;;11.51;47.48
84671;BME280;74898;42.716;23.624;2024-02-23T08:28:29;94566.03;;;11.64;47.34
84671;BME280;74898;42.716;23.624;2024-02-23T08:30:55;94568.81;;;11.81;46.69
84671;BME280;74898;42.716;23.624;2024-02-23T08:33:20;94568.31;;;11.91;46.97
84671;BME280;74898;42.716;23.624;2024-02-23T08:35:46;94570.31;;;12.07;47.06
84671;BME280;74898;42.716;23.624;2024-02-23T08:38:14;94565.72;;;12.21;46.54
84671;BME280;74898;42.716;23.624;2024-02-23T08:40:39;94563.09;;;12.40;46.08
84671;BME280;74898;42.716;23.624;2024-02-23T08:43:05;94573.50;;;12.51;44.61
84671;BME280;74898;42.716;23.624;2024-02-23T08:45:30;94572.56;;;12.46;45.06
84671;BME280;74898;42.716;23.624;2024-02-23T08:47:56;94562.22;;;12.58;44.07
84671;BME280;74898;42.716;23.624;2024-02-23T08:50:22;94568.97;;;12.59;44.42
84671;BME280;74898;42.716;23.624;2024-02-23T08:52:47;94568.56;;;12.62;43.73
84671;BME280;74898;42.716;23.624;2024-02-23T08:55:13;94568.94;;;12.35;42.20
84671;BME280;74898;42.716;23.624;2024-02-23T08:57:39;94560.50;;;12.40;45.33
84671;BME280;74898;42.716;23.624;2024-02-23T09:00:05;94570.00;;;12.58;46.09
84671;BME280;74898;42.716;23.624;2024-02-23T09:02:30;94572.81;;;12.56;43.97
84671;BME280;74898;42.716;23.624;2024-02-23T09:04:58;94574.75;;;12.61;44.73
84671;BME280;74898;42.716;23.624;2024-02-23T09:07:23;94564.16;;;12.62;44.70
84671;BME280;74898;42.716;23.624;2024-02-23T09:09:49;94573.97;;;12.60;45.41
84671;BME280;74898;42.716;23.624;2024-02-23T09:12:15;94571.59;;;12.70;46.18
84671;BME280;74898;42.716;23.624;2024-02-23T09:14:42;94564.19;;;12.74;44.25
84671;BME280;74898;42.716;23.624;2024-02-23T09:17:09;94569.38;;;12.74;45.22
84671;BME280;74898;42.716;23.624;2024-02-23T09:19:35;94567.56;;;12.86;43.22
84671;BME280;74898;42.716;23.624;2024-02-23T09:22:02;94561.47;;;12.81;42.66
84671;BME280;74898;42.716;23.624;2024-02-23T09:24:28;94562.25;;;12.81;44.28
84671;BME280;74898;42.716;23.624;2024-02-23T09:26:54;94557.50;;;12.78;45.09
84671;BME280;74898;42.716;23.624;2024-02-23T09:29:20;94562.94;;;13.00;43.39
84671;BME280;74898;42.716;23.624;2024-02-23T09:31:46;94562.72;;;13.13;44.86
84671;BME280;74898;42.716;23.624;2024-02-23T09:34:12;94565.88;;;13.15;43.81
84671;BME280;74898;42.716;23.624;2024-02-23T09:36:37;94576.59;;;13.19;43.00
84671;BME280;74898;42.716;23.624;2024-02-23T09:39:03;94564.88;;;13.40;44.52
84671;BME280;74898;42.716;23.624;2024-02-23T09:41:30;94570.97;;;13.46;43.98
84671;BME280;74898;42.716;23.624;2024-02-23T09:43:58;94571.53;;;13.48;41.49
84671;BME280;74898;42.716;23.624;2024-02-23T09:46:25;94577.09;;;13.39;42.76
84671;BME280;74898;42.716;23.624;2024-02-23T09:48:51;94578.78;;;13.46;42.04
84671;BME280;74898;42.716;23.624;2024-02-23T09:51:17;94571.78;;;13.34;41.51
84671;BME280;74898;42.716;23.624;2024-02-23T09:53:43;94570.97;;;13.34;42.73
84671;BME280;74898;42.716;23.624;2024-02-23T09:56:10;94562.03;;;12.94;41.50
84671;BME280;74898;42.716;23.624;2024-02-23T09:58:36;94569.28;;;13.04;44.51
84671;BME280;74898;42.716;23.624;2024-02-23T10:01:03;94566.09;;;13.14;40.37
84671;BME280;74898;42.716;23.624;2024-02-23T10:03:29;94558.44;;;13.31;42.32
84671;BME280;74898;42.716;23.624;2024-02-23T10:05:59;94562.16;;;13.35;42.35
84671;BME280;74898;42.716;23.624;2024-02-23T10:08:27;94555.56;;;13.56;42.55
84671;BME280;74898;42.716;23.624;2024-02-23T10:10:54;94546.72;;;13.69;42.95
84671;BME280;74898;42.716;23.624;2024-02-23T10:13:22;94552.25;;;13.72;41.89
84671;BME280;74898;42.716;23.624;2024-02-23T10:15:52;94549.09;;;13.70;42.08
84671;BME280;74898;42.716;23.624;2024-02-23T10:18:18;94550.88;;;13.81;40.84
84671;BME280;74898;42.716;23.624;2024-02-23T10:20:43;94555.00;;;13.94;40.41
84671;BME280;74898;42.716;23.624;2024-02-23T10:23:09;94547.03;;;14.13;41.74
84671;BME280;74898;42.716;23.624;2024-02-23T10:25:36;94546.25;;;14.12;40.42
84671;BME280;74898;42.716;23.624;2024-02-23T10:28:05;94535.56;;;14.14;42.81
84671;BME280;74898;42.716;23.624;2024-02-23T10:30:31;94532.69;;;14.27;42.23
84671;BME280;74898;42.716;23.624;2024-02-23T10:32:58;94525.41;;;14.29;39.85
84671;BME280;74898;42.716;23.624;2024-02-23T10:35:24;94525.69;;;14.27;42.54
84671;BME280;74898;42.716;23.624;2024-02-23T10:37:51;94530.03;;;14.39;40.25
84671;BME280;74898;42.716;23.624;2024-02-23T10:40:19;94522.13;;;14.51;39.74
84671;BME280;74898;42.716;23.624;2024-02-23T10:42:45;94523.19;;;14.66;40.56
84671;BME280;74898;42.716;23.624;2024-02-23T10:45:16;94520.59;;;14.66;38.66
84671;BME280;74898;42.716;23.624;2024-02-23T10:47:42;94513.97;;;14.59;39.84
84671;BME280;74898;42.716;23.624;2024-02-23T10:50:08;94524.38;;;14.76;39.46
84671;BME280;74898;42.716;23.624;2024-02-23T10:52:35;94513.19;;;14.75;37.83
84671;BME280;74898;42.716;23.624;2024-02-23T10:55:02;94508.41;;;14.72;39.11
84671;BME280;74898;42.716;23.624;2024-02-23T10:57:31;94505.72;;;14.84;40.00
84671;BME280;74898;42.716;23.624;2024-02-23T10:59:58;94506.34;;;14.91;38.43
84671;BME280;74898;42.716;23.624;2024-02-23T11:02:24;94510.00;;;14.90;40.17
84671;BME280;74898;42.716;23.624;2024-02-23T11:04:51;94501.94;;;14.91;37.31
84671;BME280;74898;42.716;23.624;2024-02-23T11:07:19;94501.63;;;14.88;37.67
84671;BME280;74898;42.716;23.624;2024-02-23T11:09:52;94497.75;;;14.57;37.32
84671;BME280;74898;42.716;23.624;2024-02-23T11:12:25;94480.59;;;14.44;37.17
84671;BME280;74898;42.716;23.624;2024-02-23T11:14:51;94475.50;;;14.66;36.78
84671;BME280;74898;42.716;23.624;2024-02-23T11:17:21;94475.06;;;14.91;37.50
84671;BME280;74898;42.716;23.624;2024-02-23T11:19:49;94478.78;;;14.95;38.61
84671;BME280;74898;42.716;23.624;2024-02-23T11:22:41;94478.03;;;14.61;36.37
84671;BME280;74898;42.716;23.624;2024-02-23T11:25:07;94479.00;;;14.55;37.04
84671;BME280;74898;42.716;23.624;2024-02-23T11:27:37;94471.69;;;14.23;37.86
84671;BME280;74898;42.716;23.624;2024-02-23T11:30:07;94469.72;;;14.13;38.89
84671;BME280;74898;42.716;23.624;2024-02-23T11:32:45;94464.81;;;14.17;38.16
84671;BME280;74898;42.716;23.624;2024-02-23T11:35:16;94461.22;;;14.35;37.77
84671;BME280;74898;42.716;23.624;2024-02-23T11:40:13;94457.41;;;14.25;37.76
84671;BME280;74898;42.716;23.624;2024-02-23T11:42:41;94454.69;;;14.03;37.73
84671;BME280;74898;42.716;23.624;2024-02-23T11:45:08;94451.03;;;14.33;38.36
84671;BME280;74898;42.716;23.624;2024-02-23T11:47:33;94456.31;;;14.38;36.42
84671;BME280;74898;42.716;23.624;2024-02-23T11:49:59;94450.22;;;14.66;37.25
84671;BME280;74898;42.716;23.624;2024-02-23T11:52:24;94460.00;;;14.76;36.96
84671;BME280;74898;42.716;23.624;2024-02-23T11:54:51;94459.66;;;14.89;36.06
84671;BME280;74898;42.716;23.624;2024-02-23T11:57:16;94453.41;;;15.07;37.64
84671;BME280;74898;42.716;23.624;2024-02-23T11:59:42;94449.50;;;15.32;34.98
84671;BME280;74898;42.716;23.624;2024-02-23T12:02:07;94445.91;;;15.33;34.21
84671;BME280;74898;42.716;23.624;2024-02-23T12:04:33;94442.91;;;15.24;34.04
84671;BME280;74898;42.716;23.624;2024-02-23T12:07:00;94433.88;;;15.32;34.16
84671;BME280;74898;42.716;23.624;2024-02-23T12:09:26;94430.97;;;15.50;35.32
84671;BME280;74898;42.716;23.624;2024-02-23T12:11:52;94434.63;;;15.76;34.78
84671;BME280;74898;42.716;23.624;2024-02-23T12:14:18;94413.31;;;16.17;34.49
84671;BME280;74898;42.716;23.624;2024-02-23T12:16:43;94438.94;;;16.20;35.68
84671;BME280;74898;42.716;23.624;2024-02-23T12:19:10;94434.25;;;16.22;34.11
84671;BME280;74898;42.716;23.624;2024-02-23T12:21:36;94431.75;;;16.37;35.22
84671;BME280;74898;42.716;23.624;2024-02-23T12:24:07;94425.72;;;16.69;34.71
84671;BME280;74898;42.716;23.624;2024-02-23T12:26:35;94430.25;;;16.79;34.32
84671;BME280;74898;42.716;23.624;2024-02-23T12:29:02;94417.66;;;16.76;34.15
84671;BME280;74898;42.716;23.624;2024-02-23T12:31:28;94421.13;;;16.87;33.95
84671;BME280;74898;42.716;23.624;2024-02-23T12:33:54;94414.53;;;16.41;33.69
84671;BME280;74898;42.716;23.624;2024-02-23T12:36:22;94416.63;;;16.39;34.25
84671;BME280;74898;42.716;23.624;2024-02-23T12:38:48;94412.06;;;16.25;34.17
84671;BME280;74898;42.716;23.624;2024-02-23T12:41:14;94412.97;;;16.03;35.20
84671;BME280;74898;42.716;23.624;2024-02-23T12:43:40;94412.66;;;15.99;34.51
84671;BME280;74898;42.716;23.624;2024-02-23T12:46:05;94407.00;;;16.08;36.02
84671;BME280;74898;42.716;23.624;2024-02-23T12:48:33;94403.84;;;16.06;35.51
84671;BME280;74898;42.716;23.624;2024-02-23T12:50:59;94405.66;;;16.05;36.51
84671;BME280;74898;42.716;23.624;2024-02-23T12:56:04;94391.50;;;16.33;34.94